»·PEaware :: N973SE KSBP-KSBA

N973SE :: KSBP-KSBA

FLIGHT INFORMATION

Flight Status: Arrived
Operator: Privately registered:
United States
More flights under this callsign
Pilot: Stig E. (4778)
Aircraft: CESSNA 172 SKYHAWK
(C172)
More flights by this aircraft type
Origin: KSBP San Luis Co Regl
United States
Destination: KSBA Santa Barbara Mun
United States
More flights between these airports :: More routes between these airports
Route: GVO HABUT
File this flight plan on PilotEdge
Remarks:
Altitude:
(Current/Filed)
5,500ft
Speed:
(Current/Filed)
110kts
Departed: 06-Mar-19 11:55 PM
Arrived: 07-Mar-19 12:45 AM
Distance/Time
Traveled:
62nm/0:50
Distance/Time
To Go:
Arrived

Flight Plot

Page will automatically refresh every two minutes.


Map Options




Map Legend


Flown Route
Filed Route
Departure Airport
Arrival Airport
Navaid (VOR, NDB)
Fix

Horizontal Profiles

Position Reports

Time Latitude Longitude Heading Altitude Ground
Speed
06-Mar-19 23:40 35.238248 -120.639994 307 216ft 0kts
06-Mar-19 23:41 35.238248 -120.639994 307 216ft 0kts
06-Mar-19 23:42 35.238248 -120.639994 307 216ft 0kts
06-Mar-19 23:43 35.238248 -120.639994 307 216ft 0kts
06-Mar-19 23:44 35.238248 -120.639994 307 216ft 0kts
06-Mar-19 23:45 35.238248 -120.639994 307 216ft 0kts
06-Mar-19 23:46 35.238248 -120.639994 307 216ft 0kts
06-Mar-19 23:47 35.238248 -120.639994 307 216ft 0kts
06-Mar-19 23:48 35.238248 -120.639994 307 216ft 0kts
06-Mar-19 23:49 35.238248 -120.639994 307 216ft 0kts
06-Mar-19 23:50 35.238248 -120.639994 307 216ft 0kts
06-Mar-19 23:51 35.238019 -120.640123 147 216ft 7kts
06-Mar-19 23:52 35.234989 -120.634932 124 216ft 21kts
06-Mar-19 23:53 35.233127 -120.632258 228 216ft 0kts
06-Mar-19 23:54 35.233743 -120.634725 304 216ft 51kts
06-Mar-19 23:55 35.244901 -120.656613 270 1022ft 80kts
06-Mar-19 23:56 35.229494 -120.673840 193 1892ft 79kts
06-Mar-19 23:57 35.215830 -120.655372 122 2610ft 80kts
06-Mar-19 23:58 35.204813 -120.631407 122 3273ft 81kts
06-Mar-19 23:59 35.191572 -120.609266 141 3902ft 80kts
07-Mar-19 00:00 35.173761 -120.592880 150 4582ft 80kts
07-Mar-19 00:01 35.155170 -120.577858 152 5244ft 80kts
07-Mar-19 00:02 35.133179 -120.560548 151 5486ft 113kts
07-Mar-19 00:03 35.104800 -120.538197 151 5482ft 124kts
07-Mar-19 00:04 35.075781 -120.515377 151 5478ft 118kts
07-Mar-19 00:05 35.049588 -120.494816 152 5481ft 108kts
07-Mar-19 00:06 35.024251 -120.474941 153 5481ft 108kts
07-Mar-19 00:07 34.999008 -120.455148 153 5481ft 107kts
07-Mar-19 00:08 34.973701 -120.435319 153 5481ft 107kts
07-Mar-19 00:09 34.948461 -120.415556 153 5481ft 107kts
07-Mar-19 00:10 34.923273 -120.395849 153 5481ft 107kts
07-Mar-19 00:11 34.898063 -120.376140 154 5482ft 107kts
07-Mar-19 00:12 34.872769 -120.356384 154 5484ft 108kts
07-Mar-19 00:13 34.847133 -120.336374 154 5483ft 109kts
07-Mar-19 00:14 34.820997 -120.315983 153 5486ft 112kts
07-Mar-19 00:15 34.794160 -120.295055 152 5489ft 115kts
07-Mar-19 00:16 34.766765 -120.273741 148 5512ft 117kts
07-Mar-19 00:17 34.738841 -120.251998 148 5515ft 119kts
07-Mar-19 00:18 34.710806 -120.230201 148 5517ft 119kts
07-Mar-19 00:19 34.682682 -120.208351 148 5517ft 119kts
07-Mar-19 00:20 34.654484 -120.186460 148 5517ft 120kts
07-Mar-19 00:21 34.626318 -120.164614 148 5517ft 120kts
07-Mar-19 00:22 34.598067 -120.142718 148 5517ft 120kts
07-Mar-19 00:23 34.569847 -120.120865 148 5517ft 120kts
07-Mar-19 00:24 34.541484 -120.098919 148 5517ft 120kts
07-Mar-19 00:25 34.509428 -120.090860 181 5514ft 118kts
07-Mar-19 00:26 34.476303 -120.089963 182 5512ft 118kts
07-Mar-19 00:27 34.443012 -120.089279 182 5510ft 118kts
07-Mar-19 00:28 34.423643 -120.064826 88 5508ft 116kts
07-Mar-19 00:29 34.404044 -120.040014 177 5260ft 124kts
07-Mar-19 00:30 34.369060 -120.036417 177 4759ft 125kts
07-Mar-19 00:31 34.336113 -120.040340 239 4250ft 117kts
07-Mar-19 00:32 34.331206 -120.076783 267 3746ft 108kts
07-Mar-19 00:33 34.344716 -120.095256 357 3491ft 72kts
07-Mar-19 00:34 34.363723 -120.094810 29 3500ft 72kts
07-Mar-19 00:35 34.374967 -120.072345 57 3497ft 81kts
07-Mar-19 00:37 34.385943 -120.048005 57 3403ft 86kts
07-Mar-19 00:38 34.397558 -120.022898 57 2903ft 85kts
07-Mar-19 00:39 34.409464 -119.998010 57 2401ft 85kts
07-Mar-19 00:40 34.421747 -119.973244 57 1914ft 84kts
07-Mar-19 00:41 34.425666 -119.946452 87 1515ft 83kts
07-Mar-19 00:42 34.426157 -119.918016 86 1074ft 85kts
07-Mar-19 00:43 34.426772 -119.889087 86 609ft 85kts
07-Mar-19 00:44 34.427231 -119.864891 86 179ft 67kts
07-Mar-19 00:45 34.427804 -119.846882 70 17ft 24kts
07-Mar-19 00:46 34.429053 -119.846535 150 16ft 0kts

Navigation Log

Ident Type
Flight plan parsing failed, navigation log unavailable